Time;durP1;ratioP1;P1;durP2;ratioP2;P2;SDS_P1;SDS_P2;PMS_P1;PMS_P2;Temp;Humidity;BMP_temperature;BMP_pressure;BME280_temperature;BME280_humidity;BME280_pressure;Samples;Min_cycle;Max_cycle;Signal;HPM_P1;HPM_P2
2023/11/27 00:01:59;;;;;;;8.10;2.70;;;;;;;-0.25;76.07;97808.21;105972;1256;73852;-57
2023/11/27 00:04:26;;;;;;;6.20;1.80;;;;;;;-0.19;76.37;97819.47;105338;1254;70879;-56
2023/11/27 00:06:53;;;;;;;6.50;2.50;;;;;;;-0.20;76.71;97822.83;105368;1259;73396;-57
2023/11/27 00:09:21;;;;;;;5.90;1.50;;;;;;;-0.25;76.28;97813.02;106038;1254;61769;-57
2023/11/27 00:11:48;;;;;;;8.50;3.40;;;;;;;-0.33;76.88;97804.73;105501;1254;60591;-57
2023/11/27 00:14:15;;;;;;;9.80;3.00;;;;;;;-0.30;76.97;97814.83;105496;1257;74266;-57
2023/11/27 00:16:41;;;;;;;5.70;2.50;;;;;;;-0.27;77.09;97820.09;109246;1253;70256;-59
2023/11/27 00:19:08;;;;;;;6.60;2.10;;;;;;;-0.30;77.22;97820.30;109245;1254;74138;-61
2023/11/27 00:21:35;;;;;;;9.90;2.80;;;;;;;-0.33;76.66;97817.43;109336;1254;61104;-59
2023/11/27 00:24:02;;;;;;;8.70;2.50;;;;;;;-0.26;77.71;97818.83;109326;1254;59378;-61
2023/11/27 00:26:31;;;;;;;7.20;2.40;;;;;;;-0.18;76.70;97819.22;109301;1253;63842;-59
2023/11/27 00:28:59;;;;;;;6.70;2.10;;;;;;;-0.13;76.42;97820.60;109318;1253;70395;-57
2023/11/27 00:31:27;;;;;;;5.90;2.30;;;;;;;-0.14;76.37;97818.10;105989;1253;72487;-58
2023/11/27 00:33:56;;;;;;;5.60;2.50;;;;;;;-0.25;76.20;97811.66;105422;1259;61008;-59
2023/11/27 00:36:22;;;;;;;4.60;1.70;;;;;;;-0.22;76.90;97816.10;105941;1253;60578;-58
2023/11/27 00:38:49;;;;;;;6.50;2.40;;;;;;;-0.16;76.73;97813.75;105895;1254;74146;-57
2023/11/27 00:41:16;;;;;;;5.40;1.80;;;;;;;-0.14;77.21;97814.64;105563;1254;70339;-58
2023/11/27 00:43:44;;;;;;;4.80;2.00;;;;;;;-0.24;76.08;97805.25;105637;1260;73353;-57
2023/11/27 00:46:11;;;;;;;11.50;3.50;;;;;;;-0.22;77.63;97812.66;106102;1254;61575;-59
2023/11/27 00:48:37;;;;;;;7.90;2.40;;;;;;;-0.19;76.80;97811.54;106797;1252;60702;-60
2023/11/27 00:51:05;;;;;;;5.80;2.60;;;;;;;-0.23;77.14;97818.39;105418;1257;74275;-60
2023/11/27 00:53:31;;;;;;;7.40;2.40;;;;;;;-0.25;77.13;97818.54;105830;1254;70028;-58
2023/11/27 00:55:58;;;;;;;5.30;2.20;;;;;;;-0.28;77.49;97818.61;105928;1256;72067;-58
2023/11/27 00:58:25;;;;;;;8.40;2.90;;;;;;;-0.31;77.66;97812.80;105663;1254;61010;-60
2023/11/27 01:00:55;;;;;;;9.10;2.50;;;;;;;-0.28;77.54;97819.84;106161;1254;60404;-58
2023/11/27 01:03:22;;;;;;;8.10;2.10;;;;;;;-0.22;77.65;97818.46;106453;1254;65252;-59
2023/11/27 01:05:49;;;;;;;5.10;2.10;;;;;;;-0.22;77.64;97823.32;105421;1254;71219;-57
2023/11/27 01:08:16;;;;;;;8.00;3.10;;;;;;;-0.27;77.72;97822.70;106533;1257;72914;-58
2023/11/27 01:10:42;;;;;;;5.80;1.80;;;;;;;-0.35;75.94;97822.59;106393;1254;61402;-57
2023/11/27 01:13:10;;;;;;;6.50;2.00;;;;;;;-0.30;76.47;97821.71;105645;1254;60428;-57
2023/11/27 01:15:37;;;;;;;6.50;1.70;;;;;;;-0.24;76.53;97829.85;105814;1254;73807;-58
2023/11/27 01:18:04;;;;;;;5.20;2.30;;;;;;;-0.25;76.61;97827.30;105385;1260;70458;-61
2023/11/27 01:20:31;;;;;;;5.90;2.10;;;;;;;-0.30;75.82;97829.27;106022;1254;72626;-61
2023/11/27 01:22:58;;;;;;;7.30;2.20;;;;;;;-0.30;76.37;97824.25;105880;1254;60922;-59
2023/11/27 01:25:26;;;;;;;6.80;1.70;;;;;;;-0.23;76.31;97825.80;106750;1253;60356;-58
2023/11/27 01:27:53;;;;;;;5.60;1.70;;;;;;;-0.23;75.67;97820.42;105534;1256;74348;-59
2023/11/27 01:30:20;;;;;;;6.60;2.30;;;;;;;-0.25;76.42;97827.33;105427;1254;70645;-62
2023/11/27 01:32:47;;;;;;;7.20;2.60;;;;;;;-0.36;76.14;97822.70;106622;1257;73146;-60
2023/11/27 01:35:14;;;;;;;5.70;1.90;;;;;;;-0.40;75.57;97832.61;105566;1254;62629;-59
2023/11/27 01:37:41;;;;;;;6.90;2.40;;;;;;;-0.32;75.73;97839.48;105567;1253;60973;-59
2023/11/27 01:40:09;;;;;;;6.70;2.30;;;;;;;-0.31;75.94;97831.02;106443;1255;72259;-59
2023/11/27 01:42:36;;;;;;;6.30;2.40;;;;;;;-0.32;76.13;97833.23;106603;1256;70522;-58
2023/11/27 01:45:05;;;;;;;7.80;2.40;;;;;;;-0.34;76.59;97833.77;106187;1259;73435;-60
2023/11/27 01:47:31;;;;;;;6.70;1.90;;;;;;;-0.38;76.13;97828.31;105735;1259;61045;-59
2023/11/27 01:49:58;;;;;;;5.20;1.90;;;;;;;-0.34;76.13;97830.93;106282;1259;60504;-57
2023/11/27 01:52:28;;;;;;;7.00;2.80;;;;;;;-0.34;76.07;97840.95;106179;1256;73257;-58
2023/11/27 01:54:55;;;;;;;7.80;2.50;;;;;;;-0.59;80.01;97837.49;105542;1259;70697;-58
2023/11/27 01:57:22;;;;;;;5.40;1.80;;;;;;;-0.61;81.52;97847.42;105835;1254;72606;-59
2023/11/27 01:59:51;;;;;;;5.80;2.10;;;;;;;-0.66;81.72;97843.86;105459;1254;61055;-60
2023/11/27 02:02:18;;;;;;;3.80;1.50;;;;;;;-0.63;81.29;97842.73;105272;1254;61273;-60
2023/11/27 02:04:45;;;;;;;8.10;2.50;;;;;;;-0.62;81.11;97842.35;105863;1254;72355;-58
2023/11/27 02:07:12;;;;;;;8.30;2.40;;;;;;;-0.58;79.50;97847.36;105468;1254;69456;-58
2023/11/27 02:09:39;;;;;;;6.00;2.10;;;;;;;-0.62;78.49;97844.92;105977;1255;73386;-58
2023/11/27 02:12:06;;;;;;;6.30;2.80;;;;;;;-0.69;78.68;97841.81;105316;1254;60927;-59
2023/11/27 02:14:33;;;;;;;7.60;1.90;;;;;;;-0.72;78.30;97833.68;105939;1254;60532;-59
2023/11/27 02:17:00;;;;;;;7.20;1.80;;;;;;;-0.65;79.02;97844.13;106464;1257;74142;-58
2023/11/27 02:19:27;;;;;;;5.90;2.30;;;;;;;-0.67;79.55;97850.29;105442;1254;72629;-58
2023/11/27 02:21:54;;;;;;;8.10;2.00;;;;;;;-0.70;79.27;97852.76;105967;1259;73259;-59
2023/11/27 02:24:21;;;;;;;5.50;1.70;;;;;;;-0.66;80.85;97851.12;105512;1254;61158;-57
2023/11/27 02:26:48;;;;;;;7.90;3.10;;;;;;;-0.63;81.07;97845.52;105711;1254;60521;-58
2023/11/27 02:29:14;;;;;;;6.20;1.90;;;;;;;-0.60;78.86;97850.33;106572;1253;73692;-57
2023/11/27 02:31:41;;;;;;;6.80;2.50;;;;;;;-0.60;79.07;97859.59;105740;1259;70840;-57
2023/11/27 02:34:08;;;;;;;6.60;2.10;;;;;;;-0.65;79.63;97866.17;105726;1255;73143;-57
2023/11/27 02:36:38;;;;;;;8.20;1.80;;;;;;;-0.67;79.14;97861.87;105755;1259;60635;-57
2023/11/27 02:39:08;;;;;;;3.70;1.50;;;;;;;-0.65;80.19;97866.85;105364;1257;60572;-58
2023/11/27 02:41:36;;;;;;;4.40;1.30;;;;;;;-0.63;90.20;97873.23;105889;1257;74390;-58
2023/11/27 02:44:05;;;;;;;5.20;2.10;;;;;;;-0.61;90.50;97869.44;106685;1258;68814;-58
2023/11/27 02:46:32;;;;;;;5.20;1.50;;;;;;;-0.64;84.11;97866.94;106156;1260;73126;-57
2023/11/27 02:48:59;;;;;;;3.90;1.60;;;;;;;-0.69;80.41;97865.84;105969;1254;60595;-59
2023/11/27 02:51:26;;;;;;;8.70;2.70;;;;;;;-0.67;79.83;97875.61;105882;1254;60475;-57
2023/11/27 02:53:54;;;;;;;5.20;1.70;;;;;;;-0.65;80.74;97871.15;105744;1258;74142;-58
2023/11/27 02:56:23;;;;;;;6.80;1.90;;;;;;;-0.65;81.13;97872.67;105549;1254;70048;-58
2023/11/27 02:58:50;;;;;;;6.60;2.50;;;;;;;-0.65;80.58;97880.29;106362;1254;73234;-58
2023/11/27 03:01:17;;;;;;;4.50;1.60;;;;;;;-0.71;85.87;97889.19;105691;1254;60430;-58
2023/11/27 03:03:45;;;;;;;6.50;2.00;;;;;;;-0.62;90.86;97885.58;106864;1254;60364;-57
2023/11/27 03:06:11;;;;;;;6.90;1.90;;;;;;;-0.43;85.81;97875.39;105695;1254;74359;-58
2023/11/27 03:08:38;;;;;;;4.30;1.30;;;;;;;-0.53;81.09;97885.11;107905;1255;70121;-58
2023/11/27 03:11:05;;;;;;;6.20;2.30;;;;;;;-0.55;80.19;97876.48;105865;1255;73109;-58
2023/11/27 03:13:32;;;;;;;6.50;1.70;;;;;;;-0.65;80.83;97884.59;106501;1260;60407;-58
2023/11/27 03:15:59;;;;;;;11.70;2.30;;;;;;;-0.71;80.56;97884.89;105414;1255;60529;-60
2023/11/27 03:18:26;;;;;;;5.20;1.60;;;;;;;-0.67;80.64;97902.84;106193;1255;73667;-58
2023/11/27 03:20:53;;;;;;;6.30;1.70;;;;;;;-0.66;81.42;97894.16;103507;1254;3443678;-58
2023/11/27 03:24:31;;;;;;;5.00;1.60;;;;;;;-0.97;83.25;97891.94;102795;1292;600211;-56
2023/11/27 03:26:59;;;;;;;5.10;2.00;;;;;;;-0.77;83.65;97896.84;105977;1267;59275;-55
2023/11/27 03:29:26;;;;;;;5.60;2.50;;;;;;;-0.78;81.86;97899.98;104358;1272;59968;-56
2023/11/27 03:31:54;;;;;;;5.40;1.80;;;;;;;-0.76;80.70;97900.55;105257;1269;72273;-56
2023/11/27 03:34:22;;;;;;;7.60;2.20;;;;;;;-0.75;80.52;97899.24;105541;1269;68854;-57
2023/11/27 03:36:49;;;;;;;5.40;2.30;;;;;;;-0.75;80.77;97908.08;104385;1267;72755;-59
2023/11/27 03:39:17;;;;;;;5.90;2.60;;;;;;;-0.88;81.84;97905.59;103336;1265;3609300;-58
2023/11/27 03:41:45;;;;;;;5.80;2.40;;;;;;;-0.99;87.46;97906.70;105415;1264;60127;-58
2023/11/27 03:44:12;;;;;;;6.40;1.90;;;;;;;-1.01;87.59;97921.96;105065;1265;71933;-58
2023/11/27 03:46:40;;;;;;;5.70;1.80;;;;;;;-0.96;82.55;97922.10;106399;1266;69971;-59
2023/11/27 03:49:08;;;;;;;5.60;2.20;;;;;;;-0.94;80.90;97922.51;104550;1264;71405;-58
2023/11/27 03:51:37;;;;;;;6.30;1.80;;;;;;;-0.91;80.70;97929.89;106826;1268;59741;-57
2023/11/27 03:54:06;;;;;;;5.60;2.10;;;;;;;-0.96;80.86;97926.60;104849;1266;61307;-58
2023/11/27 03:56:34;;;;;;;9.00;2.40;;;;;;;-1.05;81.81;97932.91;108239;1264;71758;-59
2023/11/27 03:59:02;;;;;;;5.60;1.90;;;;;;;-1.00;81.91;97938.38;104427;1266;70678;-59
2023/11/27 04:01:30;;;;;;;5.90;1.70;;;;;;;-1.11;82.05;97932.52;104179;1266;71938;-58
2023/11/27 04:03:59;;;;;;;3.90;1.10;;;;;;;-1.15;83.71;97938.15;105493;1258;59795;-57
2023/11/27 04:06:31;;;;;;;5.30;2.00;;;;;;;-1.15;83.74;97937.20;105655;1258;59526;-57
2023/11/27 04:08:59;;;;;;;24.00;3.20;;;;;;;-1.06;83.13;97945.05;105571;1257;71775;-57
2023/11/27 04:11:27;;;;;;;9.30;3.10;;;;;;;-1.08;84.23;97944.03;106210;1256;70016;-57
2023/11/27 04:13:55;;;;;;;5.30;2.00;;;;;;;-1.22;84.90;97948.93;105092;1257;71831;-57
2023/11/27 04:16:22;;;;;;;6.50;2.00;;;;;;;-1.26;84.99;97960.86;104831;1260;60998;-57
2023/11/27 04:18:50;;;;;;;5.40;1.80;;;;;;;-1.24;86.05;97943.42;105227;1257;60190;-57
2023/11/27 04:21:18;;;;;;;5.80;1.80;;;;;;;-1.29;86.98;97950.80;105264;1260;73081;-57
2023/11/27 04:23:49;;;;;;;5.90;3.00;;;;;;;-1.29;88.40;97969.37;104729;1258;933683;-58
2023/11/27 04:29:27;;;;;;;5.90;3.00;;;;;;;-128.00;-1.00;-1.00;2;328020834;328020834;-56
2023/11/27 04:36:40;;;;;;;5.90;3.00;;;;;;;;;;2;426710293;426710293;-60
2023/11/27 04:39:12;;;;;;;3.20;1.40;;;;;;;-137.13;-0.50;57397.84;34803;1273;21137047;-61
2023/11/27 04:42:39;;;;;;;3.20;1.40;;;;;;;-39.92;66.33;66857.40;20952;1273;121488536;-62
2023/11/27 04:45:15;;;;;;;4.80;1.40;;;;;;;4.12;100.00;98084.79;27098;1274;69174721;-62
2023/11/27 04:48:40;;;;;;;4.80;1.40;;;;;;;-90.07;45.89;37928.89;23393;1260;107034934;-62
2023/11/27 04:56:06;;;;;;;4.80;1.40;;;;;;;-128.00;-1.00;-1.00;2;436126478;436126478;-61
2023/11/27 04:59:10;;;;;;;4.80;1.40;;;;;;;;;;2;181447523;181447523;-62
2023/11/27 05:01:40;;;;;;;4.70;1.80;;;;;;;-128.00;-1.00;-1.00;103229;1256;1002661;-61
2023/11/27 05:04:07;;;;;;;6.30;2.10;;;;;;;-128.00;-1.00;-1.00;103353;1257;1002887;-60
2023/11/27 05:06:35;;;;;;;6.50;2.20;;;;;;;-128.00;-1.00;-1.00;102849;1253;1002610;-57
2023/11/27 05:09:03;;;;;;;5.50;1.70;;;;;;;-128.00;-1.00;-1.00;103374;1251;1002822;-58
2023/11/27 05:11:31;;;;;;;6.30;1.70;;;;;;;-128.00;-1.00;-1.00;103147;1257;1002407;-59
2023/11/27 05:13:58;;;;;;;5.50;2.10;;;;;;;-128.00;-1.00;-1.00;105026;1253;1002753;-57
2023/11/27 05:16:26;;;;;;;7.30;2.90;;;;;;;-128.00;-1.00;-1.00;103173;1253;1002428;-60
2023/11/27 05:18:54;;;;;;;6.50;1.90;;;;;;;-128.00;-1.00;-1.00;103440;1253;1003083;-60
2023/11/27 05:21:21;;;;;;;6.70;2.00;;;;;;;-128.00;-1.00;-1.00;104281;1253;1002513;-59
2023/11/27 05:23:49;;;;;;;5.40;2.20;;;;;;;-128.00;-1.00;-1.00;103220;1253;1002566;-59
2023/11/27 05:26:16;;;;;;;5.40;2.30;;;;;;;-128.00;-1.00;-1.00;102683;1253;1003971;-59
2023/11/27 05:28:44;;;;;;;4.40;1.60;;;;;;;-128.00;-1.00;-1.00;102611;1257;1002778;-57
2023/11/27 05:31:14;;;;;;;11.90;3.20;;;;;;;-128.00;-1.00;-1.00;102813;1257;1004188;-60
2023/11/27 05:33:42;;;;;;;8.70;2.30;;;;;;;-128.00;-1.00;-1.00;102667;1253;1013646;-57
2023/11/27 05:36:10;;;;;;;5.60;2.20;;;;;;;-128.00;-1.00;-1.00;102902;1254;1004361;-58
2023/11/27 05:38:38;;;;;;;10.80;1.90;;;;;;;-128.00;-1.00;-1.00;104485;1253;1004327;-59
2023/11/27 05:41:07;;;;;;;6.90;2.10;;;;;;;-128.00;-1.00;-1.00;102796;1253;1002396;-59
2023/11/27 05:43:35;;;;;;;5.50;2.10;;;;;;;-128.00;-1.00;-1.00;102527;1253;1011659;-60
2023/11/27 05:46:04;;;;;;;5.40;1.70;;;;;;;-128.00;-1.00;-1.00;106417;1253;1002767;-58
2023/11/27 05:48:31;;;;;;;5.70;2.30;;;;;;;-128.00;-1.00;-1.00;106475;1253;1012772;-58
2023/11/27 05:50:59;;;;;;;9.40;2.00;;;;;;;-128.00;-1.00;-1.00;106492;1252;1002501;-61
2023/11/27 05:53:26;;;;;;;8.70;3.30;;;;;;;-128.00;-1.00;-1.00;106649;1252;1002190;-60
2023/11/27 05:55:54;;;;;;;5.20;1.70;;;;;;;-128.00;-1.00;-1.00;106481;1253;1002441;-58
2023/11/27 05:58:22;;;;;;;6.50;2.50;;;;;;;-128.00;-1.00;-1.00;106525;1253;1002408;-58
2023/11/27 06:00:50;;;;;;;6.70;2.50;;;;;;;-128.00;-1.00;-1.00;105943;1253;1002694;-57
2023/11/27 06:03:18;;;;;;;4.70;1.80;;;;;;;-128.00;-1.00;-1.00;103480;1253;1003401;-56
2023/11/27 06:05:45;;;;;;;7.50;1.80;;;;;;;-128.00;-1.00;-1.00;103521;1253;1003260;-61
2023/11/27 06:08:14;;;;;;;7.20;2.00;;;;;;;-128.00;-1.00;-1.00;102667;1253;1004079;-60
2023/11/27 06:10:42;;;;;;;4.60;1.70;;;;;;;-128.00;-1.00;-1.00;102798;1252;1013807;-60
2023/11/27 06:13:09;;;;;;;6.90;2.70;;;;;;;-128.00;-1.00;-1.00;102539;1257;1002708;-60
2023/11/27 06:15:46;;;;;;;6.70;2.40;;;;;;;-128.00;-1.00;-1.00;103998;1253;1013480;-55
2023/11/27 06:18:14;;;;;;;7.30;2.30;;;;;;;-128.00;-1.00;-1.00;103697;1253;1009895;-58
2023/11/27 06:20:42;;;;;;;7.60;3.10;;;;;;;-128.00;-1.00;-1.00;102992;1257;1002560;-56
2023/11/27 06:23:09;;;;;;;5.70;1.80;;;;;;;-128.00;-1.00;-1.00;103793;1254;1002308;-57
2023/11/27 06:25:37;;;;;;;6.10;2.10;;;;;;;-128.00;-1.00;-1.00;102707;1253;1002651;-61
2023/11/27 06:28:05;;;;;;;9.70;2.20;;;;;;;-128.00;-1.00;-1.00;106498;1253;1002807;-58
2023/11/27 06:30:33;;;;;;;6.70;2.40;;;;;;;-128.00;-1.00;-1.00;106589;1252;1002165;-57
2023/11/27 06:33:01;;;;;;;6.10;2.00;;;;;;;-128.00;-1.00;-1.00;104844;1253;1011080;-55
2023/11/27 06:35:30;;;;;;;7.90;2.20;;;;;;;-128.00;-1.00;-1.00;106541;1253;1002882;-57
2023/11/27 06:37:57;;;;;;;6.50;2.30;;;;;;;-128.00;-1.00;-1.00;105638;1257;1012994;-55
2023/11/27 06:40:25;;;;;;;4.90;1.60;;;;;;;-128.00;-1.00;-1.00;104136;1253;1002131;-55
2023/11/27 06:43:08;;;;;;;5.80;2.40;;;;;;;-128.00;-1.00;-1.00;103058;1253;1010206;-55
2023/11/27 06:45:35;;;;;;;4.80;2.00;;;;;;;-128.00;-1.00;-1.00;102519;1262;1002832;-57
2023/11/27 06:48:03;;;;;;;5.50;1.90;;;;;;;-128.00;-1.00;-1.00;103220;1255;1002602;-56
2023/11/27 06:50:31;;;;;;;4.20;1.50;;;;;;;-128.00;-1.00;-1.00;103277;1256;1003350;-55
2023/11/27 06:52:58;;;;;;;5.70;2.50;;;;;;;-128.00;-1.00;-1.00;104235;1253;1002795;-56
2023/11/27 06:55:27;;;;;;;6.30;2.00;;;;;;;-128.00;-1.00;-1.00;102619;1253;1002893;-57
2023/11/27 06:57:55;;;;;;;6.30;1.80;;;;;;;-128.00;-1.00;-1.00;103448;1253;1010514;-57
2023/11/27 07:00:23;;;;;;;7.60;2.50;;;;;;;-128.00;-1.00;-1.00;102637;1253;1003047;-56
2023/11/27 07:02:51;;;;;;;6.10;1.70;;;;;;;-128.00;-1.00;-1.00;102722;1253;1002523;-55
2023/11/27 07:05:18;;;;;;;5.90;2.20;;;;;;;-128.00;-1.00;-1.00;102608;1253;1004093;-55
2023/11/27 07:07:46;;;;;;;7.10;1.80;;;;;;;-128.00;-1.00;-1.00;102590;1253;1003119;-55
2023/11/27 07:10:14;;;;;;;7.00;2.10;;;;;;;-128.00;-1.00;-1.00;104388;1253;1002550;-56
2023/11/27 07:12:42;;;;;;;5.70;2.10;;;;;;;-128.00;-1.00;-1.00;103031;1253;1004009;-54
2023/11/27 07:15:10;;;;;;;6.30;2.20;;;;;;;-128.00;-1.00;-1.00;103501;1253;1002931;-56
2023/11/27 07:17:38;;;;;;;6.90;2.40;;;;;;;-128.00;-1.00;-1.00;102997;1253;1013098;-59
2023/11/27 07:20:06;;;;;;;6.20;1.60;;;;;;;-128.00;-1.00;-1.00;103885;1253;1011626;-57
2023/11/27 07:22:35;;;;;;;6.60;2.40;;;;;;;-128.00;-1.00;-1.00;103172;1253;1010218;-59
2023/11/27 07:25:03;;;;;;;4.80;1.50;;;;;;;-128.00;-1.00;-1.00;103607;1253;1012719;-66
2023/11/27 07:27:31;;;;;;;5.70;2.20;;;;;;;-128.00;-1.00;-1.00;104496;1253;1013577;-59
2023/11/27 07:29:58;;;;;;;4.40;1.50;;;;;;;-128.00;-1.00;-1.00;102660;1253;1003273;-59
2023/11/27 07:32:26;;;;;;;6.60;2.50;;;;;;;-128.00;-1.00;-1.00;103367;1253;1002835;-59
2023/11/27 07:34:54;;;;;;;11.90;3.00;;;;;;;-128.00;-1.00;-1.00;103343;1253;1002451;-61
2023/11/27 07:37:22;;;;;;;6.40;2.70;;;;;;;-128.00;-1.00;-1.00;103448;1253;1002500;-59
2023/11/27 07:39:50;;;;;;;4.80;1.60;;;;;;;-128.00;-1.00;-1.00;103017;1253;1013392;-62
2023/11/27 07:42:18;;;;;;;6.20;1.70;;;;;;;-128.00;-1.00;-1.00;104970;1253;1002919;-60
2023/11/27 07:44:45;;;;;;;8.20;2.20;;;;;;;-128.00;-1.00;-1.00;106490;1252;1002185;-60
2023/11/27 07:47:13;;;;;;;7.10;2.80;;;;;;;-128.00;-1.00;-1.00;103709;1253;1002629;-54
2023/11/27 07:49:40;;;;;;;7.10;3.10;;;;;;;-128.00;-1.00;-1.00;106266;1253;1002599;-58
2023/11/27 07:52:08;;;;;;;6.90;3.00;;;;;;;-128.00;-1.00;-1.00;106521;1253;1002244;-57
2023/11/27 07:54:36;;;;;;;7.50;3.00;;;;;;;-128.00;-1.00;-1.00;106522;1255;1002668;-60
2023/11/27 07:57:04;;;;;;;6.70;2.30;;;;;;;-128.00;-1.00;-1.00;106586;1253;1002213;-58
2023/11/27 07:59:34;;;;;;;7.50;2.70;;;;;;;-128.00;-1.00;-1.00;105558;1253;1010418;-58
2023/11/27 08:02:03;;;;;;;7.40;3.00;;;;;;;-128.00;-1.00;-1.00;102902;1252;1002867;-59
2023/11/27 08:04:32;;;;;;;6.30;3.00;;;;;;;-128.00;-1.00;-1.00;106549;1253;1013018;-58
2023/11/27 08:07:00;;;;;;;12.30;3.60;;;;;;;-128.00;-1.00;-1.00;103409;1253;1013009;-59
2023/11/27 08:09:28;;;;;;;5.90;2.60;;;;;;;-128.00;-1.00;-1.00;102775;1253;1003724;-57
2023/11/27 08:11:56;;;;;;;6.10;2.40;;;;;;;-128.00;-1.00;-1.00;102527;1253;1003907;-58
2023/11/27 08:14:24;;;;;;;5.30;1.80;;;;;;;-128.00;-1.00;-1.00;102783;1256;1003312;-58
2023/11/27 08:16:52;;;;;;;5.40;2.30;;;;;;;-128.00;-1.00;-1.00;103043;1253;1003870;-57
2023/11/27 08:19:20;;;;;;;8.70;2.80;;;;;;;-128.00;-1.00;-1.00;103091;1253;1002504;-60
2023/11/27 08:21:48;;;;;;;9.50;2.30;;;;;;;-128.00;-1.00;-1.00;103960;1255;1012787;-57
2023/11/27 08:24:16;;;;;;;4.90;1.60;;;;;;;-128.00;-1.00;-1.00;102795;1252;1002957;-59
2023/11/27 08:26:49;;;;;;;5.10;2.30;;;;;;;-128.00;-1.00;-1.00;103448;1253;1002905;-57
2023/11/27 08:29:17;;;;;;;6.90;1.80;;;;;;;-128.00;-1.00;-1.00;103258;1253;1013215;-57
2023/11/27 08:31:45;;;;;;;5.10;1.70;;;;;;;-128.00;-1.00;-1.00;102711;1257;1012952;-59
2023/11/27 08:34:13;;;;;;;6.70;2.70;;;;;;;-128.00;-1.00;-1.00;102751;1253;1010708;-56
2023/11/27 08:36:42;;;;;;;7.80;3.30;;;;;;;-128.00;-1.00;-1.00;103037;1253;1003197;-55
2023/11/27 08:39:13;;;;;;;5.10;2.00;;;;;;;-128.00;-1.00;-1.00;102954;1253;1015100;-57
2023/11/27 08:41:41;;;;;;;7.40;2.80;;;;;;;-128.00;-1.00;-1.00;105078;1254;1013448;-57
2023/11/27 08:44:09;;;;;;;8.20;2.40;;;;;;;-128.00;-1.00;-1.00;102588;1254;1003661;-57
2023/11/27 08:46:37;;;;;;;5.90;2.40;;;;;;;-128.00;-1.00;-1.00;102550;1257;1004297;-57
2023/11/27 08:49:04;;;;;;;5.10;1.90;;;;;;;-128.00;-1.00;-1.00;103513;1256;1004469;-59
2023/11/27 08:51:32;;;;;;;5.50;2.50;;;;;;;-128.00;-1.00;-1.00;102582;1253;1002933;-57
2023/11/27 08:54:00;;;;;;;5.30;2.00;;;;;;;-128.00;-1.00;-1.00;103090;1253;1003610;-57
2023/11/27 08:56:33;;;;;;;6.40;2.50;;;;;;;-128.00;-1.00;-1.00;106495;1253;1002578;-57
2023/11/27 08:59:02;;;;;;;4.90;2.00;;;;;;;-128.00;-1.00;-1.00;106589;1252;1011047;-57
2023/11/27 09:01:29;;;;;;;5.40;2.20;;;;;;;-128.00;-1.00;-1.00;105689;1253;1011014;-59
2023/11/27 09:03:57;;;;;;;8.50;2.10;;;;;;;-128.00;-1.00;-1.00;104121;1253;1003148;-57
2023/11/27 09:06:25;;;;;;;5.70;2.50;;;;;;;-128.00;-1.00;-1.00;104997;1253;1002933;-58
2023/11/27 09:08:53;;;;;;;5.40;1.80;;;;;;;-128.00;-1.00;-1.00;102793;1253;1002444;-57
2023/11/27 09:11:20;;;;;;;8.70;2.70;;;;;;;-128.00;-1.00;-1.00;102570;1259;1003351;-58
2023/11/27 09:13:52;;;;;;;4.80;1.40;;;;;;;-128.00;-1.00;-1.00;102736;1258;1011721;-58
2023/11/27 09:16:20;;;;;;;10.00;2.30;;;;;;;-128.00;-1.00;-1.00;103113;1253;1002711;-58
2023/11/27 09:18:48;;;;;;;4.20;1.70;;;;;;;-128.00;-1.00;-1.00;103104;1253;1015832;-57
2023/11/27 09:21:16;;;;;;;7.90;3.10;;;;;;;-128.00;-1.00;-1.00;102785;1253;1004482;-58
2023/11/27 09:23:43;;;;;;;9.80;4.30;;;;;;;-128.00;-1.00;-1.00;102748;1253;1004225;-57
2023/11/27 09:26:13;;;;;;;8.60;3.00;;;;;;;-128.00;-1.00;-1.00;103653;1258;1004668;-57
2023/11/27 09:28:41;;;;;;;5.50;2.00;;;;;;;-128.00;-1.00;-1.00;103060;1253;1012667;-56
2023/11/27 09:31:09;;;;;;;7.80;2.40;;;;;;;-128.00;-1.00;-1.00;104515;1252;1013733;-57
2023/11/27 09:33:37;;;;;;;8.70;2.20;;;;;;;-128.00;-1.00;-1.00;106429;1253;1002797;-58
2023/11/27 09:36:05;;;;;;;6.10;2.30;;;;;;;-128.00;-1.00;-1.00;105664;1253;1002551;-58
2023/11/27 09:38:33;;;;;;;7.20;2.90;;;;;;;-128.00;-1.00;-1.00;103508;1257;1010432;-57
2023/11/27 09:41:02;;;;;;;5.70;1.40;;;;;;;-128.00;-1.00;-1.00;102505;1253;1003823;-57
2023/11/27 09:43:31;;;;;;;5.40;2.00;;;;;;;-128.00;-1.00;-1.00;102498;1253;1013469;-56
2023/11/27 09:45:58;;;;;;;5.70;2.20;;;;;;;-128.00;-1.00;-1.00;103383;1258;1013026;-55
2023/11/27 09:48:26;;;;;;;4.70;1.60;;;;;;;-128.00;-1.00;-1.00;103271;1254;1002803;-56
2023/11/27 09:50:57;;;;;;;6.70;1.80;;;;;;;-128.00;-1.00;-1.00;102823;1260;1003102;-56
2023/11/27 09:53:27;;;;;;;5.80;1.90;;;;;;;-128.00;-1.00;-1.00;104772;1257;1013818;-56
2023/11/27 09:55:56;;;;;;;6.00;2.10;;;;;;;-128.00;-1.00;-1.00;102513;1253;1012597;-58
2023/11/27 09:58:24;;;;;;;5.90;2.10;;;;;;;-128.00;-1.00;-1.00;103594;1253;1003027;-60
2023/11/27 10:00:54;;;;;;;6.60;2.90;;;;;;;-128.00;-1.00;-1.00;103535;1253;1002642;-58
2023/11/27 10:03:24;;;;;;;5.50;2.10;;;;;;;-128.00;-1.00;-1.00;104239;1255;1011647;-55
2023/11/27 10:05:53;;;;;;;4.80;1.80;;;;;;;-128.00;-1.00;-1.00;104282;1253;1013697;-56
2023/11/27 10:08:21;;;;;;;7.70;2.70;;;;;;;-128.00;-1.00;-1.00;103349;1257;1002867;-55
2023/11/27 10:10:48;;;;;;;6.00;2.60;;;;;;;-128.00;-1.00;-1.00;103276;1253;1004563;-56
2023/11/27 10:13:18;;;;;;;7.30;2.10;;;;;;;-128.00;-1.00;-1.00;104182;1252;1002682;-57
2023/11/27 10:16:08;;;;;;;3.70;1.50;;;;;;;-128.00;-1.00;-1.00;104873;1253;1011269;-56
2023/11/27 10:18:36;;;;;;;8.60;2.00;;;;;;;-128.00;-1.00;-1.00;103192;1253;1012676;-56
2023/11/27 10:21:09;;;;;;;5.10;1.90;;;;;;;-128.00;-1.00;-1.00;105402;1253;1012808;-57
2023/11/27 10:23:37;;;;;;;7.50;2.30;;;;;;;-128.00;-1.00;-1.00;103365;1253;1012699;-57
2023/11/27 10:26:05;;;;;;;5.60;2.40;;;;;;;-128.00;-1.00;-1.00;103184;1258;1002965;-57
2023/11/27 10:28:41;;;;;;;5.20;1.90;;;;;;;-128.00;-1.00;-1.00;104414;1253;1011032;-60
2023/11/27 10:31:09;;;;;;;7.50;2.30;;;;;;;-128.00;-1.00;-1.00;102680;1257;1013053;-58
2023/11/27 10:33:37;;;;;;;6.90;1.20;;;;;;;-128.00;-1.00;-1.00;102995;1257;1002391;-58
2023/11/27 10:36:06;;;;;;;4.90;2.10;;;;;;;-128.00;-1.00;-1.00;102625;1253;1004290;-56
2023/11/27 10:38:36;;;;;;;4.60;1.30;;;;;;;-128.00;-1.00;-1.00;103601;1253;1011303;-57
2023/11/27 10:41:05;;;;;;;5.90;2.10;;;;;;;-128.00;-1.00;-1.00;102859;1255;1012507;-55
2023/11/27 10:43:35;;;;;;;6.90;2.00;;;;;;;-128.00;-1.00;-1.00;104131;1253;1012107;-56
2023/11/27 10:46:07;;;;;;;4.60;1.70;;;;;;;-128.00;-1.00;-1.00;102870;1253;1012530;-61
2023/11/27 10:48:36;;;;;;;4.70;1.70;;;;;;;-128.00;-1.00;-1.00;103636;1253;1012833;-56
2023/11/27 10:51:14;;;;;;;4.70;1.50;;;;;;;-128.00;-1.00;-1.00;103209;1253;1010833;-55
2023/11/27 10:53:46;;;;;;;9.80;3.20;;;;;;;-128.00;-1.00;-1.00;103157;1253;1011772;-58
2023/11/27 10:56:14;;;;;;;8.60;1.80;;;;;;;-128.00;-1.00;-1.00;103737;1257;1012972;-57
2023/11/27 10:58:42;;;;;;;5.90;1.20;;;;;;;-128.00;-1.00;-1.00;103534;1255;1012486;-57
2023/11/27 11:01:12;;;;;;;6.10;1.30;;;;;;;-128.00;-1.00;-1.00;102651;1253;1004285;-56
2023/11/27 11:03:42;;;;;;;8.40;3.20;;;;;;;-128.00;-1.00;-1.00;104998;1253;1010089;-57
2023/11/27 11:06:10;;;;;;;6.00;2.10;;;;;;;-128.00;-1.00;-1.00;103257;1256;1010836;-57
2023/11/27 11:08:38;;;;;;;5.70;2.30;;;;;;;-128.00;-1.00;-1.00;104784;1257;1002382;-59
2023/11/27 11:11:07;;;;;;;8.10;2.70;;;;;;;-128.00;-1.00;-1.00;104011;1253;1002619;-56
2023/11/27 11:13:35;;;;;;;5.20;1.60;;;;;;;-128.00;-1.00;-1.00;103396;1253;1013067;-59
2023/11/27 11:16:13;;;;;;;5.70;1.90;;;;;;;-128.00;-1.00;-1.00;104682;1253;1010004;-59
2023/11/27 11:18:51;;;;;;;4.40;1.50;;;;;;;-128.00;-1.00;-1.00;106471;1253;1011989;-60
2023/11/27 11:21:47;;;;;;;5.30;2.30;;;;;;;-128.00;-1.00;-1.00;104976;1253;1015847;-58
2023/11/27 11:24:37;;;;;;;7.10;2.30;;;;;;;-128.00;-1.00;-1.00;103955;1254;1013160;-60
2023/11/27 11:27:17;;;;;;;7.10;1.70;;;;;;;-128.00;-1.00;-1.00;103720;1258;1012719;-62
2023/11/27 11:29:49;;;;;;;5.60;1.80;;;;;;;-128.00;-1.00;-1.00;102558;1253;1010067;-60
2023/11/27 11:32:17;;;;;;;5.30;1.40;;;;;;;-128.00;-1.00;-1.00;102298;1253;1012224;-59
2023/11/27 11:34:51;;;;;;;4.90;1.80;;;;;;;-128.00;-1.00;-1.00;106613;1253;1002689;-61
2023/11/27 11:37:20;;;;;;;7.50;2.30;;;;;;;-128.00;-1.00;-1.00;106505;1254;1014697;-61
2023/11/27 11:39:53;;;;;;;6.00;1.90;;;;;;;-128.00;-1.00;-1.00;106609;1253;1012338;-60
2023/11/27 11:42:32;;;;;;;11.40;2.20;;;;;;;-128.00;-1.00;-1.00;106472;1253;1010900;-59